Holdrege, NE

4:44 PM CDT on September 19, 2019 (GMT -0500)
Brewster

Weather History for KHDE - August, 2019

Change the Weather History Date:

Saturday, August 17, 2019

  Actual Average Record
Temperature  
Mean Temperature 77 °F -  
Max Temperature 88 °F 88 °F 105 °F (1983)
Min Temperature 66 °F 62 °F 48 °F (2012)
Cooling Degree Days 12    
Growing Degree Days 27 (Base 50)    
Moisture  
Dew Point 69 °F    
Average Humidity 80    
Maximum Humidity 100    
Minimum Humidity 51    
Precipitation  
Precipitation 0.03 in - - ()
Sea Level Pressure  
Sea Level Pressure 29.79 in    
Wind  
Wind Speed 8 mph ()    
Max Wind Speed 21 mph    
Max Gust Speed 25 mph    
Visibility 8.8 miles    
Events Rain , Thunderstorm    
Averages and records for this station are not official NWS values.
T = Trace of Precipitation, MM = Missing Value Source: Averaged Metar Reports

Daily Weather History Graph

Daily Weather History Graph

Search for Another Location

Airport or City:

Astronomy

Aug. 17, 2019 Rise Set
Actual Time 6:49 AM CDT 8:32 PM CDT
Civil Twilight 6:20 AM CDT 9:01 PM CDT
Nautical Twilight 5:45 AM CDT 9:36 PM CDT
Astronomical Twilight 5:07 AM CDT 10:13 PM CDT
Moon 10:00 PM CDT (8/17) 8:40 AM CDT (8/17)
Length of Visible Light 14h 40m
Length of Day
13h 42m
Waning Gibbous, 96% of the Moon is Illuminated
Aug 17
Waning Gibbous
Aug 23
Last Quarter
Aug 30
New
Sep 5
First Quarter
Sep 13
Full

Hourly Weather History & Observations

Time (CDT) Temp. Heat Index Dew Point Humidity Pressure Visibility Wind Dir Wind Speed Gust Speed Precip Events Conditions
12:15 AM 71.6 °F - 70.3 °F 96% 29.96 in 10.0 mi NE 6.9 mph - N/A   Mostly Cloudy
12:35 AM 71.1 °F - 70.3 °F 98% 29.93 in 5.0 mi NNE 6.9 mph - 0.02 in Rain , Thunderstorm Heavy Thunderstorms and Rain
12:55 AM 69.8 °F - 69.8 °F 100% 29.90 in 7.0 mi North 6.9 mph - 0.03 in   Scattered Clouds
1:15 AM 69.4 °F - 69.4 °F 100% 29.86 in 7.0 mi NNE 5.8 mph - N/A   Clear
1:35 AM 69.3 °F - 69.3 °F 100% 29.81 in 7.0 mi ESE 9.2 mph - N/A   Clear
1:55 AM 69.3 °F - 69.3 °F 100% 29.79 in 5.0 mi SSE 8.1 mph - N/A   Clear
2:15 AM 69.3 °F - 69.3 °F 100% 29.76 in 4.0 mi SSE 8.1 mph - N/A   Mostly Cloudy
2:35 AM 69.1 °F - 69.1 °F 100% 29.74 in 2.5 mi Calm Calm - N/A   Overcast
2:55 AM 68.9 °F - 68.9 °F 100% 29.76 in 3.0 mi North 5.8 mph - N/A   Overcast
3:15 AM 69.3 °F - 69.3 °F 100% 29.77 in 4.0 mi SE 5.8 mph - N/A   Overcast
3:35 AM 69.8 °F - 69.8 °F 100% 29.83 in 4.0 mi SSE 5.8 mph - N/A   Mist
3:55 AM 69.8 °F - 69.8 °F 100% 29.86 in 4.0 mi SE 9.2 mph - N/A   Overcast
4:15 AM 69.8 °F - 69.8 °F 100% 29.86 in 4.0 mi SE 15.0 mph 20.7 mph N/A   Overcast
4:35 AM 70.7 °F - 70.7 °F 100% 29.85 in 1.5 mi SSE 15.0 mph 19.6 mph N/A   Overcast
4:55 AM 70.5 °F - 70.5 °F 100% 29.82 in 5.0 mi SE 10.4 mph - N/A   Overcast
5:15 AM 70.3 °F - 70.3 °F 100% 29.81 in 7.0 mi SE 4.6 mph - N/A   Overcast
5:35 AM 69.8 °F - 69.8 °F 100% 29.83 in 10.0 mi SE 5.8 mph - N/A   Mostly Cloudy
5:55 AM 68.2 °F - 68.0 °F 99% 29.82 in 10.0 mi East 3.5 mph - N/A   Scattered Clouds
6:20 AM 68.0 °F - 68.0 °F 100% 29.83 in - ENE 6.9 mph - N/A   Unknown
6:35 AM 68.2 °F - 68.2 °F 100% 29.84 in 7.0 mi East 4.6 mph - N/A   Unknown
6:55 AM 67.5 °F - 67.5 °F 100% 29.84 in 10.0 mi East 5.8 mph - N/A   Clear
7:15 AM 67.1 °F - 67.1 °F 100% 29.84 in 10.0 mi East 3.5 mph - N/A   Clear
7:35 AM 66.7 °F - 66.7 °F 100% 29.84 in 10.0 mi Calm Calm - N/A   Clear
7:55 AM 67.3 °F - 67.3 °F 100% 29.84 in 10.0 mi Calm Calm - N/A   Clear
8:15 AM 68.4 °F - 68.0 °F 99% 29.84 in 10.0 mi ESE 3.5 mph - N/A   Clear
8:35 AM 69.4 °F - 68.2 °F 96% 29.84 in 10.0 mi SE 4.6 mph - N/A   Clear
8:55 AM 70.9 °F - 68.7 °F 93% 29.84 in 10.0 mi SSE 3.5 mph - N/A   Clear
9:15 AM 73.6 °F - 70.2 °F 89% 29.83 in 10.0 mi SSE 3.5 mph - N/A   Clear
9:35 AM 75.6 °F - 70.2 °F 83% 29.84 in 10.0 mi South 5.8 mph - N/A   Clear
9:55 AM 77.4 °F - 69.6 °F 77% 29.83 in 10.0 mi SSE 5.8 mph - N/A   Clear
10:15 AM 77.5 °F - 70.3 °F 78% 29.83 in 10.0 mi SSE 5.8 mph - N/A   Clear
10:35 AM 78.3 °F - 70.5 °F 77% 29.84 in 10.0 mi SSE 8.1 mph - N/A   Clear
10:55 AM 78.8 °F - 69.4 °F 73% 29.83 in 10.0 mi SSE 8.1 mph - N/A   Clear
11:15 AM 79.7 °F - 66.9 °F 65% 29.83 in 10.0 mi South 11.5 mph - N/A   Clear
11:35 AM 80.8 °F 83.1 °F 66.7 °F 62% 29.83 in 10.0 mi South 13.8 mph 17.3 mph N/A   Clear
11:55 AM 81.9 °F 84.2 °F 66.7 °F 60% 29.82 in 10.0 mi South 11.5 mph 20.7 mph N/A   Clear
12:15 PM 82.8 °F 85.1 °F 66.6 °F 58% 29.81 in 10.0 mi South 15.0 mph - N/A   Clear
12:35 PM 83.7 °F 85.8 °F 65.8 °F 55% 29.81 in 10.0 mi South 13.8 mph 21.9 mph N/A   Clear
12:55 PM 84.6 °F 87.1 °F 66.6 °F 55% 29.80 in 10.0 mi SSW 17.3 mph - N/A   Clear
1:15 PM 85.3 °F 87.6 °F 66.6 °F 53% 29.80 in 10.0 mi SSW 16.1 mph 25.3 mph N/A   Clear
1:35 PM 85.5 °F 87.9 °F 66.4 °F 53% 29.79 in 10.0 mi South 20.7 mph 24.2 mph N/A   Clear
1:55 PM 86.2 °F 89.1 °F 67.5 °F 53% 29.79 in 10.0 mi SSW 18.4 mph 24.2 mph N/A   Clear
2:15 PM 86.2 °F 89.1 °F 67.1 °F 53% 29.78 in 10.0 mi SSW 15.0 mph 18.4 mph N/A   Clear
2:35 PM 87.1 °F 90.2 °F 67.3 °F 52% 29.77 in 10.0 mi SSW 15.0 mph 21.9 mph N/A   Clear
2:55 PM 87.4 °F 91.2 °F 68.2 °F 53% 29.77 in 10.0 mi SSW 13.8 mph 19.6 mph N/A   Clear
3:15 PM 87.3 °F 90.5 °F 67.5 °F 52% 29.76 in 10.0 mi SSW 16.1 mph - N/A   Clear
3:35 PM 87.8 °F 91.8 °F 68.7 °F 53% 29.76 in 10.0 mi South 12.7 mph - N/A   Clear
3:55 PM 88.3 °F 92.4 °F 68.7 °F 52% 29.76 in 10.0 mi South 12.7 mph - N/A   Clear
4:15 PM 88.2 °F 92.1 °F 68.4 °F 52% 29.75 in 10.0 mi South 12.7 mph 17.3 mph N/A   Clear
4:35 PM 88.7 °F 92.6 °F 68.7 °F 51% 29.74 in 10.0 mi South 11.5 mph 17.3 mph N/A   Clear
4:55 PM 88.7 °F 92.6 °F 68.7 °F 51% 29.74 in 10.0 mi South 12.7 mph - N/A   Clear
5:15 PM 88.5 °F 93.5 °F 70.2 °F 54% 29.74 in 10.0 mi South 10.4 mph - N/A   Clear
5:35 PM 88.0 °F 93.4 °F 70.3 °F 56% 29.72 in 10.0 mi South 10.4 mph - N/A   Clear
5:55 PM 87.8 °F 92.6 °F 69.8 °F 55% 29.72 in 10.0 mi South 11.5 mph - N/A   Clear
6:15 PM 86.4 °F 91.4 °F 70.3 °F 59% 29.72 in 10.0 mi South 8.1 mph - N/A   Clear
6:35 PM 85.1 °F 89.8 °F 70.2 °F 61% 29.72 in 10.0 mi South 8.1 mph - N/A   Clear
6:55 PM 83.5 °F 88.5 °F 71.6 °F 67% 29.72 in 10.0 mi South 5.8 mph - N/A   Clear
7:15 PM 82.6 °F 87.1 °F 71.2 °F 68% 29.72 in 10.0 mi South 5.8 mph - N/A   Clear
7:35 PM 81.5 °F 85.7 °F 71.4 °F 71% 29.72 in 10.0 mi South 6.9 mph - N/A   Clear
7:55 PM 81.0 °F 84.9 °F 71.1 °F 72% 29.72 in 10.0 mi South 9.2 mph - N/A   Clear
8:15 PM 81.0 °F 84.6 °F 70.3 °F 70% 29.72 in 10.0 mi South 9.2 mph - N/A   Clear
8:35 PM 80.4 °F 83.8 °F 70.3 °F 71% 29.71 in 10.0 mi South 8.1 mph - N/A   Clear
8:55 PM 78.3 °F - 70.7 °F 77% 29.68 in 10.0 mi SSE 8.1 mph - N/A   Clear
9:15 PM 77.2 °F - 70.9 °F 81% 29.69 in 10.0 mi SSE 6.9 mph - N/A   Clear
9:35 PM 76.5 °F - 70.7 °F 82% 29.72 in 10.0 mi SSE 4.6 mph - N/A   Clear
9:55 PM 74.7 °F - 70.7 °F 87% 29.72 in 10.0 mi SSE 6.9 mph - N/A   Clear
10:15 PM 74.3 °F - 71.1 °F 90% 29.72 in 10.0 mi SE 5.8 mph - N/A   Clear
10:35 PM 74.3 °F - 71.6 °F 91% 29.73 in 10.0 mi SE 5.8 mph - N/A   Clear
10:55 PM 73.8 °F - 71.6 °F 93% 29.72 in 10.0 mi SE 8.1 mph - N/A   Clear
11:15 PM 73.9 °F - 72.0 °F 93% 29.72 in 10.0 mi SSE 8.1 mph - N/A   Clear
11:35 PM 73.2 °F - 71.6 °F 95% 29.72 in 10.0 mi SSE 5.8 mph - N/A   Clear
11:55 PM 73.4 °F - 71.8 °F 95% 29.72 in 10.0 mi South 5.8 mph - N/A   Clear